<?xml version="1.0" encoding="UTF-8" standalone="no" ?>
<gpx xmlns="http://www.topografix.com/GPX/1/1" xmlns:xsi="http://www.w3.org/2001/XMLSchema-instance" xsi:schemaLocation="http://www.topografix.com/GPX/1/1 http://www.topografix.com/GPX/1/1/gpx.xsd" version="1.1" creator="VisuGPX - https://www.visugpx.com">
  <metadata>
    <name>22km_2024</name>
  </metadata>
  <trk>
    <name><![CDATA[22km_2024]]></name>
    <trkseg>
      <trkpt lat="50.65066" lon="2.83106">
        <ele>17.46942</ele>
        <time>2024-03-24T16:35:09.838Z</time>
      </trkpt>
      <trkpt lat="50.65057" lon="2.83085">
        <ele>17.46942</ele>
        <time>2024-03-24T16:35:13.798Z</time>
      </trkpt>
      <trkpt lat="50.65054" lon="2.83079">
        <ele>17.46942</ele>
        <time>2024-03-24T16:35:15.581Z</time>
      </trkpt>
      <trkpt lat="50.65006" lon="2.82971">
        <ele>17.453641</ele>
        <time>2024-03-24T16:35:37.728Z</time>
      </trkpt>
      <trkpt lat="50.64921" lon="2.82822">
        <ele>17.319425</ele>
        <time>2024-03-24T16:36:10.854Z</time>
      </trkpt>
      <trkpt lat="50.64889" lon="2.82766">
        <ele>17.26594</ele>
        <time>2024-03-24T16:36:23.428Z</time>
      </trkpt>
      <trkpt lat="50.64756" lon="2.82615">
        <ele>17.04386</ele>
        <time>2024-03-24T16:37:06.164Z</time>
      </trkpt>
      <trkpt lat="50.64728" lon="2.82572">
        <ele>17.029166</ele>
        <time>2024-03-24T16:37:16.550Z</time>
      </trkpt>
      <trkpt lat="50.64572" lon="2.82303">
        <ele>17.001648</ele>
        <time>2024-03-24T16:38:17.906Z</time>
      </trkpt>
      <trkpt lat="50.64453" lon="2.82144">
        <ele>17.060756</ele>
        <time>2024-03-24T16:38:59.699Z</time>
      </trkpt>
      <trkpt lat="50.64275" lon="2.81979">
        <ele>17.215115</ele>
        <time>2024-03-24T16:39:56.062Z</time>
      </trkpt>
      <trkpt lat="50.64121" lon="2.81709">
        <ele>17.175373</ele>
        <time>2024-03-24T16:40:56.974Z</time>
      </trkpt>
      <trkpt lat="50.63988" lon="2.81511">
        <ele>16.918981</ele>
        <time>2024-03-24T16:41:44.787Z</time>
      </trkpt>
      <trkpt lat="50.63924" lon="2.81294">
        <ele>16.491608</ele>
        <time>2024-03-24T16:42:23.438Z</time>
      </trkpt>
      <trkpt lat="50.63887" lon="2.81129">
        <ele>16.235724</ele>
        <time>2024-03-24T16:42:51.054Z</time>
      </trkpt>
      <trkpt lat="50.63812" lon="2.80966">
        <ele>16.127098</ele>
        <time>2024-03-24T16:43:24.878Z</time>
      </trkpt>
      <trkpt lat="50.63773" lon="2.80905">
        <ele>16.30462</ele>
        <time>2024-03-24T16:43:40.413Z</time>
      </trkpt>
      <trkpt lat="50.63698" lon="2.80799">
        <ele>16.710128</ele>
        <time>2024-03-24T16:44:09.938Z</time>
      </trkpt>
      <trkpt lat="50.63643" lon="2.80722">
        <ele>16.875646</ele>
        <time>2024-03-24T16:44:31.196Z</time>
      </trkpt>
      <trkpt lat="50.63411" lon="2.80523">
        <ele>16.79879</ele>
        <time>2024-03-24T16:45:40.861Z</time>
      </trkpt>
      <trkpt lat="50.63347" lon="2.80435">
        <ele>16.677653</ele>
        <time>2024-03-24T16:46:02.297Z</time>
      </trkpt>
      <trkpt lat="50.63337" lon="2.80459">
        <ele>16.656631</ele>
        <time>2024-03-24T16:46:06.899Z</time>
      </trkpt>
      <trkpt lat="50.63347" lon="2.80435">
        <ele>16.635609</ele>
        <time>2024-03-24T16:46:11.472Z</time>
      </trkpt>
      <trkpt lat="50.63406" lon="2.80297">
        <ele>16.510504</ele>
        <time>2024-03-24T16:46:39.576Z</time>
      </trkpt>
      <trkpt lat="50.63464" lon="2.80176">
        <ele>16.459639</ele>
        <time>2024-03-24T16:47:05.270Z</time>
      </trkpt>
      <trkpt lat="50.63531" lon="2.80065">
        <ele>16.40825</ele>
        <time>2024-03-24T16:47:30.931Z</time>
      </trkpt>
      <trkpt lat="50.63592" lon="2.79943">
        <ele>16.202147</ele>
        <time>2024-03-24T16:47:55.604Z</time>
      </trkpt>
      <trkpt lat="50.63624" lon="2.79897">
        <ele>16.109834</ele>
        <time>2024-03-24T16:48:07.023Z</time>
      </trkpt>
      <trkpt lat="50.63661" lon="2.79846">
        <ele>16.06963</ele>
        <time>2024-03-24T16:48:19.963Z</time>
      </trkpt>
      <trkpt lat="50.63626" lon="2.79733">
        <ele>16.220576</ele>
        <time>2024-03-24T16:48:41.802Z</time>
      </trkpt>
      <trkpt lat="50.63617" lon="2.79666">
        <ele>16.301971</ele>
        <time>2024-03-24T16:48:53.981Z</time>
      </trkpt>
      <trkpt lat="50.63603" lon="2.79621">
        <ele>16.362535</ele>
        <time>2024-03-24T16:49:03.100Z</time>
      </trkpt>
      <trkpt lat="50.63536" lon="2.79466">
        <ele>16.538137</ele>
        <time>2024-03-24T16:49:35.791Z</time>
      </trkpt>
      <trkpt lat="50.63529" lon="2.79455">
        <ele>16.552239</ele>
        <time>2024-03-24T16:49:38.419Z</time>
      </trkpt>
      <trkpt lat="50.63498" lon="2.79421">
        <ele>16.608009</ele>
        <time>2024-03-24T16:49:48.843Z</time>
      </trkpt>
      <trkpt lat="50.63483" lon="2.79414">
        <ele>16.630482</ele>
        <time>2024-03-24T16:49:52.999Z</time>
      </trkpt>
      <trkpt lat="50.63454" lon="2.79385">
        <ele>16.620109</ele>
        <time>2024-03-24T16:50:02.107Z</time>
      </trkpt>
      <trkpt lat="50.63433" lon="2.79351">
        <ele>16.59747</ele>
        <time>2024-03-24T16:50:09.892Z</time>
      </trkpt>
      <trkpt lat="50.63386" lon="2.79271">
        <ele>16.545264</ele>
        <time>2024-03-24T16:50:27.829Z</time>
      </trkpt>
      <trkpt lat="50.63373" lon="2.79219">
        <ele>16.518744</ele>
        <time>2024-03-24T16:50:37.352Z</time>
      </trkpt>
      <trkpt lat="50.63367" lon="2.79197">
        <ele>16.507326</ele>
        <time>2024-03-24T16:50:41.534Z</time>
      </trkpt>
      <trkpt lat="50.63352" lon="2.79171">
        <ele>16.4915</ele>
        <time>2024-03-24T16:50:47.586Z</time>
      </trkpt>
      <trkpt lat="50.63303" lon="2.79111">
        <ele>16.449031</ele>
        <time>2024-03-24T16:51:03.856Z</time>
      </trkpt>
      <trkpt lat="50.63232" lon="2.79032">
        <ele>16.3886</ele>
        <time>2024-03-24T16:51:26.604Z</time>
      </trkpt>
      <trkpt lat="50.6312" lon="2.78884">
        <ele>16.172197</ele>
        <time>2024-03-24T16:52:04.664Z</time>
      </trkpt>
      <trkpt lat="50.63005" lon="2.78747">
        <ele>15.918269</ele>
        <time>2024-03-24T16:52:41.969Z</time>
      </trkpt>
      <trkpt lat="50.62997" lon="2.78727">
        <ele>15.890857</ele>
        <time>2024-03-24T16:52:45.557Z</time>
      </trkpt>
      <trkpt lat="50.62998" lon="2.78701">
        <ele>15.860092</ele>
        <time>2024-03-24T16:52:50.110Z</time>
      </trkpt>
      <trkpt lat="50.63003" lon="2.78672">
        <ele>15.824207</ele>
        <time>2024-03-24T16:52:54.897Z</time>
      </trkpt>
      <trkpt lat="50.63005" lon="2.78639">
        <ele>15.784956</ele>
        <time>2024-03-24T16:53:00.684Z</time>
      </trkpt>
      <trkpt lat="50.63014" lon="2.78625">
        <ele>15.772301</ele>
        <time>2024-03-24T16:53:03.871Z</time>
      </trkpt>
      <trkpt lat="50.63173" lon="2.78261">
        <ele>16.038668</ele>
        <time>2024-03-24T16:54:20.005Z</time>
      </trkpt>
      <trkpt lat="50.63236" lon="2.78134">
        <ele>16.175867</ele>
        <time>2024-03-24T16:54:48.379Z</time>
      </trkpt>
      <trkpt lat="50.63304" lon="2.78005">
        <ele>16.290042</ele>
        <time>2024-03-24T16:55:17.492Z</time>
      </trkpt>
      <trkpt lat="50.6338" lon="2.77875">
        <ele>16.200533</ele>
        <time>2024-03-24T16:55:47.138Z</time>
      </trkpt>
      <trkpt lat="50.63481" lon="2.77686">
        <ele>15.934828</ele>
        <time>2024-03-24T16:56:27.059Z</time>
      </trkpt>
      <trkpt lat="50.63633" lon="2.77395">
        <ele>15.9339</ele>
        <time>2024-03-24T16:57:31.133Z</time>
      </trkpt>
      <trkpt lat="50.63679" lon="2.77302">
        <ele>15.9903</ele>
        <time>2024-03-24T16:57:51.476Z</time>
      </trkpt>
      <trkpt lat="50.63683" lon="2.77294">
        <ele>15.998237</ele>
        <time>2024-03-24T16:57:53.348Z</time>
      </trkpt>
      <trkpt lat="50.63679" lon="2.77302">
        <ele>16.009046</ele>
        <time>2024-03-24T16:57:55.235Z</time>
      </trkpt>
      <trkpt lat="50.63663" lon="2.77282">
        <ele>16.041676</ele>
        <time>2024-03-24T16:58:00.665Z</time>
      </trkpt>
      <trkpt lat="50.63576" lon="2.77209">
        <ele>16.201965</ele>
        <time>2024-03-24T16:58:27.567Z</time>
      </trkpt>
      <trkpt lat="50.63559" lon="2.77196">
        <ele>16.233599</ele>
        <time>2024-03-24T16:58:32.879Z</time>
      </trkpt>
      <trkpt lat="50.63524" lon="2.77179">
        <ele>16.304505</ele>
        <time>2024-03-24T16:58:42.876Z</time>
      </trkpt>
      <trkpt lat="50.63495" lon="2.77159">
        <ele>16.43273</ele>
        <time>2024-03-24T16:58:51.587Z</time>
      </trkpt>
      <trkpt lat="50.63419" lon="2.77088">
        <ele>16.795091</ele>
        <time>2024-03-24T16:59:17.201Z</time>
      </trkpt>
      <trkpt lat="50.63371" lon="2.77052">
        <ele>17.009759</ele>
        <time>2024-03-24T16:59:32.945Z</time>
      </trkpt>
      <trkpt lat="50.63318" lon="2.77018">
        <ele>17.108191</ele>
        <time>2024-03-24T16:59:49.341Z</time>
      </trkpt>
      <trkpt lat="50.63318" lon="2.77012">
        <ele>17.114046</ele>
        <time>2024-03-24T16:59:50.417Z</time>
      </trkpt>
      <trkpt lat="50.63313" lon="2.77007">
        <ele>17.122783</ele>
        <time>2024-03-24T16:59:51.898Z</time>
      </trkpt>
      <trkpt lat="50.63321" lon="2.76986">
        <ele>17.14705</ele>
        <time>2024-03-24T16:59:55.954Z</time>
      </trkpt>
      <trkpt lat="50.6334" lon="2.76909">
        <ele>17.230205</ele>
        <time>2024-03-24T17:00:10.468Z</time>
      </trkpt>
      <trkpt lat="50.63352" lon="2.76858">
        <ele>17.285057</ele>
        <time>2024-03-24T17:00:19.693Z</time>
      </trkpt>
      <trkpt lat="50.6336" lon="2.76824">
        <ele>17.267534</ele>
        <time>2024-03-24T17:00:25.648Z</time>
      </trkpt>
      <trkpt lat="50.63422" lon="2.76575">
        <ele>16.602233</ele>
        <time>2024-03-24T17:01:07.538Z</time>
      </trkpt>
      <trkpt lat="50.63439" lon="2.7648">
        <ele>16.378985</ele>
        <time>2024-03-24T17:01:23.175Z</time>
      </trkpt>
      <trkpt lat="50.63466" lon="2.76272">
        <ele>15.946723</ele>
        <time>2024-03-24T17:01:57.189Z</time>
      </trkpt>
      <trkpt lat="50.63475" lon="2.76229">
        <ele>15.921765</ele>
        <time>2024-03-24T17:02:04.680Z</time>
      </trkpt>
      <trkpt lat="50.63503" lon="2.76131">
        <ele>15.862745</ele>
        <time>2024-03-24T17:02:22.606Z</time>
      </trkpt>
      <trkpt lat="50.63533" lon="2.75966">
        <ele>15.841163</ele>
        <time>2024-03-24T17:02:51.556Z</time>
      </trkpt>
      <trkpt lat="50.63539" lon="2.75943">
        <ele>15.854906</ele>
        <time>2024-03-24T17:02:56.070Z</time>
      </trkpt>
      <trkpt lat="50.63568" lon="2.75869">
        <ele>15.902084</ele>
        <time>2024-03-24T17:03:11.314Z</time>
      </trkpt>
      <trkpt lat="50.63575" lon="2.75838">
        <ele>15.91971</ele>
        <time>2024-03-24T17:03:17.002Z</time>
      </trkpt>
      <trkpt lat="50.63576" lon="2.75776">
        <ele>15.95374</ele>
        <time>2024-03-24T17:03:27.776Z</time>
      </trkpt>
      <trkpt lat="50.63573" lon="2.75716">
        <ele>15.944771</ele>
        <time>2024-03-24T17:03:37.915Z</time>
      </trkpt>
      <trkpt lat="50.63565" lon="2.75673">
        <ele>15.932651</ele>
        <time>2024-03-24T17:03:45.365Z</time>
      </trkpt>
      <trkpt lat="50.63527" lon="2.75551">
        <ele>15.89577</ele>
        <time>2024-03-24T17:04:08.171Z</time>
      </trkpt>
      <trkpt lat="50.6349" lon="2.75465">
        <ele>15.849865</ele>
        <time>2024-03-24T17:04:25.556Z</time>
      </trkpt>
      <trkpt lat="50.63484" lon="2.75445">
        <ele>15.836923</ele>
        <time>2024-03-24T17:04:29.066Z</time>
      </trkpt>
      <trkpt lat="50.63482" lon="2.75424">
        <ele>15.823581</ele>
        <time>2024-03-24T17:04:32.687Z</time>
      </trkpt>
      <trkpt lat="50.63483" lon="2.75401">
        <ele>15.809794</ele>
        <time>2024-03-24T17:04:36.465Z</time>
      </trkpt>
      <trkpt lat="50.63486" lon="2.75306">
        <ele>15.752092</ele>
        <time>2024-03-24T17:04:52.256Z</time>
      </trkpt>
      <trkpt lat="50.63492" lon="2.75244">
        <ele>15.713939</ele>
        <time>2024-03-24T17:05:02.801Z</time>
      </trkpt>
      <trkpt lat="50.63545" lon="2.74989">
        <ele>15.727713</ele>
        <time>2024-03-24T17:05:48.209Z</time>
      </trkpt>
      <trkpt lat="50.63605" lon="2.74677">
        <ele>15.866948</ele>
        <time>2024-03-24T17:06:44.071Z</time>
      </trkpt>
      <trkpt lat="50.63608" lon="2.74646">
        <ele>15.859334</ele>
        <time>2024-03-24T17:06:49.445Z</time>
      </trkpt>
      <trkpt lat="50.63607" lon="2.74621">
        <ele>15.853007</ele>
        <time>2024-03-24T17:06:53.862Z</time>
      </trkpt>
      <trkpt lat="50.63591" lon="2.74519">
        <ele>15.827041</ele>
        <time>2024-03-24T17:07:11.661Z</time>
      </trkpt>
      <trkpt lat="50.63592" lon="2.74508">
        <ele>15.824185</ele>
        <time>2024-03-24T17:07:13.579Z</time>
      </trkpt>
      <trkpt lat="50.63596" lon="2.74498">
        <ele>15.821332</ele>
        <time>2024-03-24T17:07:15.513Z</time>
      </trkpt>
      <trkpt lat="50.6366" lon="2.74449">
        <ele>15.740645</ele>
        <time>2024-03-24T17:07:34.064Z</time>
      </trkpt>
      <trkpt lat="50.63716" lon="2.74391">
        <ele>15.535809</ele>
        <time>2024-03-24T17:07:51.306Z</time>
      </trkpt>
      <trkpt lat="50.63835" lon="2.74314">
        <ele>15.196201</ele>
        <time>2024-03-24T17:08:23.423Z</time>
      </trkpt>
      <trkpt lat="50.6388" lon="2.74267">
        <ele>15.1037</ele>
        <time>2024-03-24T17:08:37.262Z</time>
      </trkpt>
      <trkpt lat="50.63887" lon="2.74257">
        <ele>15.087972</ele>
        <time>2024-03-24T17:08:39.677Z</time>
      </trkpt>
      <trkpt lat="50.63858" lon="2.74046">
        <ele>15.060094</ele>
        <time>2024-03-24T17:09:15.936Z</time>
      </trkpt>
      <trkpt lat="50.63851" lon="2.7393">
        <ele>15.202781</ele>
        <time>2024-03-24T17:09:36.689Z</time>
      </trkpt>
      <trkpt lat="50.63849" lon="2.73915">
        <ele>15.220885</ele>
        <time>2024-03-24T17:09:39.191Z</time>
      </trkpt>
      <trkpt lat="50.63843" lon="2.73827">
        <ele>15.309016</ele>
        <time>2024-03-24T17:09:55.407Z</time>
      </trkpt>
      <trkpt lat="50.63825" lon="2.73714">
        <ele>15.364083</ele>
        <time>2024-03-24T17:10:16.147Z</time>
      </trkpt>
      <trkpt lat="50.63812" lon="2.73667">
        <ele>15.388273</ele>
        <time>2024-03-24T17:10:24.789Z</time>
      </trkpt>
      <trkpt lat="50.63798" lon="2.73668">
        <ele>15.398821</ele>
        <time>2024-03-24T17:10:28.605Z</time>
      </trkpt>
      <trkpt lat="50.63798" lon="2.73641">
        <ele>15.411767</ele>
        <time>2024-03-24T17:10:33.630Z</time>
      </trkpt>
      <trkpt lat="50.63798" lon="2.73668">
        <ele>15.424713</ele>
        <time>2024-03-24T17:10:38.616Z</time>
      </trkpt>
      <trkpt lat="50.63812" lon="2.73667">
        <ele>15.402705</ele>
        <time>2024-03-24T17:10:42.181Z</time>
      </trkpt>
      <trkpt lat="50.63991" lon="2.73661">
        <ele>14.572546</ele>
        <time>2024-03-24T17:11:26.030Z</time>
      </trkpt>
      <trkpt lat="50.64084" lon="2.73662">
        <ele>14.524079</ele>
        <time>2024-03-24T17:11:49.715Z</time>
      </trkpt>
      <trkpt lat="50.64122" lon="2.73661">
        <ele>14.504628</ele>
        <time>2024-03-24T17:11:59.918Z</time>
      </trkpt>
      <trkpt lat="50.64157" lon="2.73682">
        <ele>14.485269</ele>
        <time>2024-03-24T17:12:10.597Z</time>
      </trkpt>
      <trkpt lat="50.64165" lon="2.73697">
        <ele>14.519444</ele>
        <time>2024-03-24T17:12:14.243Z</time>
      </trkpt>
      <trkpt lat="50.64175" lon="2.73705">
        <ele>14.597001</ele>
        <time>2024-03-24T17:12:17.790Z</time>
      </trkpt>
      <trkpt lat="50.64186" lon="2.73705">
        <ele>14.667803</ele>
        <time>2024-03-24T17:12:20.857Z</time>
      </trkpt>
      <trkpt lat="50.64196" lon="2.73698">
        <ele>14.738146</ele>
        <time>2024-03-24T17:12:24.040Z</time>
      </trkpt>
      <trkpt lat="50.64204" lon="2.73683">
        <ele>14.818362</ele>
        <time>2024-03-24T17:12:27.666Z</time>
      </trkpt>
      <trkpt lat="50.64207" lon="2.73663">
        <ele>14.899041</ele>
        <time>2024-03-24T17:12:31.055Z</time>
      </trkpt>
      <trkpt lat="50.64206" lon="2.73653">
        <ele>14.939556</ele>
        <time>2024-03-24T17:12:32.762Z</time>
      </trkpt>
      <trkpt lat="50.64214" lon="2.73639">
        <ele>15.019244</ele>
        <time>2024-03-24T17:12:36.892Z</time>
      </trkpt>
      <trkpt lat="50.64229" lon="2.73618">
        <ele>15.14798</ele>
        <time>2024-03-24T17:12:42.954Z</time>
      </trkpt>
      <trkpt lat="50.6427" lon="2.73575">
        <ele>15.468355</ele>
        <time>2024-03-24T17:12:58.551Z</time>
      </trkpt>
      <trkpt lat="50.64291" lon="2.73556">
        <ele>15.622582</ele>
        <time>2024-03-24T17:13:05.684Z</time>
      </trkpt>
      <trkpt lat="50.64326" lon="2.73523">
        <ele>15.768465</ele>
        <time>2024-03-24T17:13:17.795Z</time>
      </trkpt>
      <trkpt lat="50.64348" lon="2.73505">
        <ele>15.851314</ele>
        <time>2024-03-24T17:13:25.379Z</time>
      </trkpt>
      <trkpt lat="50.64367" lon="2.73485">
        <ele>15.928857</ele>
        <time>2024-03-24T17:13:31.772Z</time>
      </trkpt>
      <trkpt lat="50.64373" lon="2.73473">
        <ele>15.960987</ele>
        <time>2024-03-24T17:13:34.524Z</time>
      </trkpt>
      <trkpt lat="50.64374" lon="2.73449">
        <ele>16.012993</ele>
        <time>2024-03-24T17:13:38.570Z</time>
      </trkpt>
      <trkpt lat="50.64374" lon="2.73446">
        <ele>16.018591</ele>
        <time>2024-03-24T17:13:39.070Z</time>
      </trkpt>
      <trkpt lat="50.64372" lon="2.73424">
        <ele>16.065073</ele>
        <time>2024-03-24T17:13:42.942Z</time>
      </trkpt>
      <trkpt lat="50.64362" lon="2.73313">
        <ele>16.218425</ele>
        <time>2024-03-24T17:14:02.144Z</time>
      </trkpt>
      <trkpt lat="50.64346" lon="2.73134">
        <ele>16.042321</ele>
        <time>2024-03-24T17:14:31.274Z</time>
      </trkpt>
      <trkpt lat="50.64341" lon="2.72987">
        <ele>15.99564</ele>
        <time>2024-03-24T17:14:55.555Z</time>
      </trkpt>
      <trkpt lat="50.64484" lon="2.7288">
        <ele>16.109</ele>
        <time>2024-03-24T17:15:39.009Z</time>
      </trkpt>
      <trkpt lat="50.64544" lon="2.72834">
        <ele>16.209117</ele>
        <time>2024-03-24T17:15:57.086Z</time>
      </trkpt>
      <trkpt lat="50.64557" lon="2.72825">
        <ele>16.231636</ele>
        <time>2024-03-24T17:16:01.235Z</time>
      </trkpt>
      <trkpt lat="50.6457" lon="2.72822">
        <ele>16.25096</ele>
        <time>2024-03-24T17:16:04.785Z</time>
      </trkpt>
      <trkpt lat="50.64614" lon="2.7282">
        <ele>16.317433</ele>
        <time>2024-03-24T17:16:17.146Z</time>
      </trkpt>
      <trkpt lat="50.64677" lon="2.72828">
        <ele>16.360201</ele>
        <time>2024-03-24T17:16:34.102Z</time>
      </trkpt>
      <trkpt lat="50.64736" lon="2.72834">
        <ele>16.381512</ele>
        <time>2024-03-24T17:16:50.058Z</time>
      </trkpt>
      <trkpt lat="50.64772" lon="2.72835">
        <ele>16.39428</ele>
        <time>2024-03-24T17:16:59.732Z</time>
      </trkpt>
      <trkpt lat="50.64802" lon="2.72823">
        <ele>16.405289</ele>
        <time>2024-03-24T17:17:07.939Z</time>
      </trkpt>
      <trkpt lat="50.64835" lon="2.72805">
        <ele>16.392483</ele>
        <time>2024-03-24T17:17:17.177Z</time>
      </trkpt>
      <trkpt lat="50.64853" lon="2.72796">
        <ele>16.381125</ele>
        <time>2024-03-24T17:17:22.125Z</time>
      </trkpt>
      <trkpt lat="50.64904" lon="2.72766">
        <ele>16.348071</ele>
        <time>2024-03-24T17:17:36.324Z</time>
      </trkpt>
      <trkpt lat="50.64922" lon="2.72753">
        <ele>16.336419</ele>
        <time>2024-03-24T17:17:41.372Z</time>
      </trkpt>
      <trkpt lat="50.64949" lon="2.72731">
        <ele>16.318015</ele>
        <time>2024-03-24T17:17:49.518Z</time>
      </trkpt>
      <trkpt lat="50.64953" lon="2.72724">
        <ele>16.314502</ele>
        <time>2024-03-24T17:17:51.142Z</time>
      </trkpt>
      <trkpt lat="50.64956" lon="2.72711">
        <ele>16.308969</ele>
        <time>2024-03-24T17:17:53.625Z</time>
      </trkpt>
      <trkpt lat="50.64961" lon="2.7271">
        <ele>16.306078</ele>
        <time>2024-03-24T17:17:54.933Z</time>
      </trkpt>
      <trkpt lat="50.64964" lon="2.72704">
        <ele>16.303141</ele>
        <time>2024-03-24T17:17:56.255Z</time>
      </trkpt>
      <trkpt lat="50.64962" lon="2.72697">
        <ele>16.300229</ele>
        <time>2024-03-24T17:17:57.537Z</time>
      </trkpt>
      <trkpt lat="50.64993" lon="2.72656">
        <ele>16.274098</ele>
        <time>2024-03-24T17:18:08.415Z</time>
      </trkpt>
      <trkpt lat="50.65011" lon="2.7265">
        <ele>16.261756</ele>
        <time>2024-03-24T17:18:13.294Z</time>
      </trkpt>
      <trkpt lat="50.65017" lon="2.72655">
        <ele>16.257744</ele>
        <time>2024-03-24T17:18:15.007Z</time>
      </trkpt>
      <trkpt lat="50.6502" lon="2.7265">
        <ele>16.25465</ele>
        <time>2024-03-24T17:18:16.258Z</time>
      </trkpt>
      <trkpt lat="50.65017" lon="2.72655">
        <ele>16.251557</ele>
        <time>2024-03-24T17:18:17.584Z</time>
      </trkpt>
      <trkpt lat="50.65022" lon="2.72664">
        <ele>16.246625</ele>
        <time>2024-03-24T17:18:19.504Z</time>
      </trkpt>
      <trkpt lat="50.65038" lon="2.72721">
        <ele>16.221081</ele>
        <time>2024-03-24T17:18:29.652Z</time>
      </trkpt>
      <trkpt lat="50.65074" lon="2.728">
        <ele>16.178657</ele>
        <time>2024-03-24T17:18:46.492Z</time>
      </trkpt>
      <trkpt lat="50.6508" lon="2.72812">
        <ele>16.168713</ele>
        <time>2024-03-24T17:18:48.826Z</time>
      </trkpt>
      <trkpt lat="50.65083" lon="2.72816">
        <ele>16.164596</ele>
        <time>2024-03-24T17:18:49.864Z</time>
      </trkpt>
      <trkpt lat="50.65159" lon="2.72968">
        <ele>16.032974</ele>
        <time>2024-03-24T17:19:21.856Z</time>
      </trkpt>
      <trkpt lat="50.65166" lon="2.72979">
        <ele>16.021859</ele>
        <time>2024-03-24T17:19:24.548Z</time>
      </trkpt>
      <trkpt lat="50.65177" lon="2.72986">
        <ele>16.009505</ele>
        <time>2024-03-24T17:19:27.449Z</time>
      </trkpt>
      <trkpt lat="50.65188" lon="2.72986">
        <ele>15.998024</ele>
        <time>2024-03-24T17:19:30.260Z</time>
      </trkpt>
      <trkpt lat="50.652" lon="2.72979">
        <ele>15.991297</ele>
        <time>2024-03-24T17:19:33.756Z</time>
      </trkpt>
      <trkpt lat="50.65282" lon="2.72912">
        <ele>16.010003</ele>
        <time>2024-03-24T17:19:58.346Z</time>
      </trkpt>
      <trkpt lat="50.65294" lon="2.72908">
        <ele>16.012345</ele>
        <time>2024-03-24T17:20:01.475Z</time>
      </trkpt>
      <trkpt lat="50.653" lon="2.7291">
        <ele>16.013596</ele>
        <time>2024-03-24T17:20:03.182Z</time>
      </trkpt>
      <trkpt lat="50.65309" lon="2.72928">
        <ele>16.01657</ele>
        <time>2024-03-24T17:20:07.175Z</time>
      </trkpt>
      <trkpt lat="50.6533" lon="2.72979">
        <ele>16.024334</ele>
        <time>2024-03-24T17:20:17.609Z</time>
      </trkpt>
      <trkpt lat="50.65362" lon="2.7306">
        <ele>16.059776</ele>
        <time>2024-03-24T17:20:34.002Z</time>
      </trkpt>
      <trkpt lat="50.65382" lon="2.73093">
        <ele>16.079524</ele>
        <time>2024-03-24T17:20:42.004Z</time>
      </trkpt>
      <trkpt lat="50.6541" lon="2.73123">
        <ele>16.102101</ele>
        <time>2024-03-24T17:20:51.123Z</time>
      </trkpt>
      <trkpt lat="50.65506" lon="2.73196">
        <ele>16.134458</ele>
        <time>2024-03-24T17:21:19.739Z</time>
      </trkpt>
      <trkpt lat="50.65567" lon="2.73238">
        <ele>16.113473</ele>
        <time>2024-03-24T17:21:37.297Z</time>
      </trkpt>
      <trkpt lat="50.65585" lon="2.73255">
        <ele>16.106677</ele>
        <time>2024-03-24T17:21:42.991Z</time>
      </trkpt>
      <trkpt lat="50.65603" lon="2.73279">
        <ele>16.099192</ele>
        <time>2024-03-24T17:21:49.259Z</time>
      </trkpt>
      <trkpt lat="50.65619" lon="2.73309">
        <ele>16.0915</ele>
        <time>2024-03-24T17:21:55.702Z</time>
      </trkpt>
      <trkpt lat="50.65625" lon="2.7333">
        <ele>16.087714</ele>
        <time>2024-03-24T17:21:59.570Z</time>
      </trkpt>
      <trkpt lat="50.65629" lon="2.73341">
        <ele>16.085785</ele>
        <time>2024-03-24T17:22:01.776Z</time>
      </trkpt>
      <trkpt lat="50.65625" lon="2.7333">
        <ele>16.083856</ele>
        <time>2024-03-24T17:22:03.947Z</time>
      </trkpt>
      <trkpt lat="50.65594" lon="2.73364">
        <ele>16.075128</ele>
        <time>2024-03-24T17:22:13.853Z</time>
      </trkpt>
      <trkpt lat="50.65583" lon="2.73369">
        <ele>16.072422</ele>
        <time>2024-03-24T17:22:16.925Z</time>
      </trkpt>
      <trkpt lat="50.65535" lon="2.73364">
        <ele>16.061257</ele>
        <time>2024-03-24T17:22:29.704Z</time>
      </trkpt>
      <trkpt lat="50.65504" lon="2.73369">
        <ele>16.053971</ele>
        <time>2024-03-24T17:22:38.125Z</time>
      </trkpt>
      <trkpt lat="50.65478" lon="2.73397">
        <ele>16.045356</ele>
        <time>2024-03-24T17:22:46.501Z</time>
      </trkpt>
      <trkpt lat="50.65447" lon="2.73445">
        <ele>16.025625</ele>
        <time>2024-03-24T17:22:58.121Z</time>
      </trkpt>
      <trkpt lat="50.65436" lon="2.73452">
        <ele>16.020518</ele>
        <time>2024-03-24T17:23:01.109Z</time>
      </trkpt>
      <trkpt lat="50.65403" lon="2.73458">
        <ele>16.005328</ele>
        <time>2024-03-24T17:23:09.965Z</time>
      </trkpt>
      <trkpt lat="50.65385" lon="2.73471">
        <ele>15.996427</ele>
        <time>2024-03-24T17:23:15.136Z</time>
      </trkpt>
      <trkpt lat="50.65365" lon="2.73504">
        <ele>15.983292</ele>
        <time>2024-03-24T17:23:22.811Z</time>
      </trkpt>
      <trkpt lat="50.65287" lon="2.73674">
        <ele>15.826349</ele>
        <time>2024-03-24T17:23:57.777Z</time>
      </trkpt>
      <trkpt lat="50.6523" lon="2.73771">
        <ele>15.703213</ele>
        <time>2024-03-24T17:24:19.481Z</time>
      </trkpt>
      <trkpt lat="50.65206" lon="2.7382">
        <ele>15.631526</ele>
        <time>2024-03-24T17:24:29.508Z</time>
      </trkpt>
      <trkpt lat="50.65112" lon="2.74084">
        <ele>15.293116</ele>
        <time>2024-03-24T17:25:19.222Z</time>
      </trkpt>
      <trkpt lat="50.65103" lon="2.74094">
        <ele>15.276025</ele>
        <time>2024-03-24T17:25:22.041Z</time>
      </trkpt>
      <trkpt lat="50.65094" lon="2.74098">
        <ele>15.261709</ele>
        <time>2024-03-24T17:25:24.389Z</time>
      </trkpt>
      <trkpt lat="50.65082" lon="2.74096">
        <ele>15.241844</ele>
        <time>2024-03-24T17:25:27.674Z</time>
      </trkpt>
      <trkpt lat="50.65046" lon="2.74059">
        <ele>15.174448</ele>
        <time>2024-03-24T17:25:38.760Z</time>
      </trkpt>
      <trkpt lat="50.65032" lon="2.74052">
        <ele>15.151862</ele>
        <time>2024-03-24T17:25:42.476Z</time>
      </trkpt>
      <trkpt lat="50.65015" lon="2.74073">
        <ele>15.117505</ele>
        <time>2024-03-24T17:25:48.170Z</time>
      </trkpt>
      <trkpt lat="50.6495" lon="2.74181">
        <ele>15.020974</ele>
        <time>2024-03-24T17:26:13.052Z</time>
      </trkpt>
      <trkpt lat="50.64977" lon="2.74241">
        <ele>14.978746</ele>
        <time>2024-03-24T17:26:25.180Z</time>
      </trkpt>
      <trkpt lat="50.65028" lon="2.74315">
        <ele>14.921186</ele>
        <time>2024-03-24T17:26:43.402Z</time>
      </trkpt>
      <trkpt lat="50.6504" lon="2.74329">
        <ele>14.913842</ele>
        <time>2024-03-24T17:26:47.177Z</time>
      </trkpt>
      <trkpt lat="50.65064" lon="2.74345">
        <ele>14.900464</ele>
        <time>2024-03-24T17:26:54.054Z</time>
      </trkpt>
      <trkpt lat="50.6509" lon="2.74375">
        <ele>14.883834</ele>
        <time>2024-03-24T17:27:02.636Z</time>
      </trkpt>
      <trkpt lat="50.65276" lon="2.74635">
        <ele>14.930494</ele>
        <time>2024-03-24T17:28:09.104Z</time>
      </trkpt>
      <trkpt lat="50.65309" lon="2.74691">
        <ele>14.960114</ele>
        <time>2024-03-24T17:28:22.529Z</time>
      </trkpt>
      <trkpt lat="50.65356" lon="2.74794">
        <ele>15.009666</ele>
        <time>2024-03-24T17:28:44.187Z</time>
      </trkpt>
      <trkpt lat="50.65437" lon="2.74966">
        <ele>15.11548</ele>
        <time>2024-03-24T17:29:20.958Z</time>
      </trkpt>
      <trkpt lat="50.65514" lon="2.75129">
        <ele>15.229799</ele>
        <time>2024-03-24T17:29:55.532Z</time>
      </trkpt>
      <trkpt lat="50.65554" lon="2.75207">
        <ele>15.222132</ele>
        <time>2024-03-24T17:30:13.614Z</time>
      </trkpt>
      <trkpt lat="50.65564" lon="2.75231">
        <ele>15.219911</ele>
        <time>2024-03-24T17:30:18.362Z</time>
      </trkpt>
      <trkpt lat="50.65609" lon="2.75344">
        <ele>15.209673</ele>
        <time>2024-03-24T17:30:40.205Z</time>
      </trkpt>
      <trkpt lat="50.65631" lon="2.75398">
        <ele>15.175277</ele>
        <time>2024-03-24T17:30:50.642Z</time>
      </trkpt>
      <trkpt lat="50.65651" lon="2.75445">
        <ele>15.142974</ele>
        <time>2024-03-24T17:31:00.090Z</time>
      </trkpt>
      <trkpt lat="50.65768" lon="2.75702">
        <ele>15.097393</ele>
        <time>2024-03-24T17:31:53.326Z</time>
      </trkpt>
      <trkpt lat="50.65803" lon="2.75755">
        <ele>15.12287</ele>
        <time>2024-03-24T17:32:06.762Z</time>
      </trkpt>
      <trkpt lat="50.65972" lon="2.75999">
        <ele>15.378497</ele>
        <time>2024-03-24T17:33:09.526Z</time>
      </trkpt>
      <trkpt lat="50.66006" lon="2.76036">
        <ele>15.364099</ele>
        <time>2024-03-24T17:33:20.632Z</time>
      </trkpt>
      <trkpt lat="50.66038" lon="2.76056">
        <ele>15.352257</ele>
        <time>2024-03-24T17:33:29.666Z</time>
      </trkpt>
      <trkpt lat="50.66144" lon="2.76126">
        <ele>15.294108</ele>
        <time>2024-03-24T17:33:59.607Z</time>
      </trkpt>
      <trkpt lat="50.6615" lon="2.7613">
        <ele>15.286368</ele>
        <time>2024-03-24T17:34:01.410Z</time>
      </trkpt>
      <trkpt lat="50.66234" lon="2.76198">
        <ele>15.17977</ele>
        <time>2024-03-24T17:34:26.235Z</time>
      </trkpt>
      <trkpt lat="50.66203" lon="2.76314">
        <ele>15.090248</ele>
        <time>2024-03-24T17:34:46.904Z</time>
      </trkpt>
      <trkpt lat="50.66175" lon="2.76444">
        <ele>14.993271</ele>
        <time>2024-03-24T17:35:09.368Z</time>
      </trkpt>
      <trkpt lat="50.6616" lon="2.76478">
        <ele>14.963348</ele>
        <time>2024-03-24T17:35:16.270Z</time>
      </trkpt>
      <trkpt lat="50.66072" lon="2.76577">
        <ele>15.260708</ele>
        <time>2024-03-24T17:35:45.892Z</time>
      </trkpt>
      <trkpt lat="50.6604" lon="2.76612">
        <ele>15.459688</ele>
        <time>2024-03-24T17:35:57.095Z</time>
      </trkpt>
      <trkpt lat="50.66016" lon="2.76634">
        <ele>15.604358</ele>
        <time>2024-03-24T17:36:05.657Z</time>
      </trkpt>
      <trkpt lat="50.65983" lon="2.76659">
        <ele>15.792713</ele>
        <time>2024-03-24T17:36:16.833Z</time>
      </trkpt>
      <trkpt lat="50.65927" lon="2.76704">
        <ele>16.124748</ele>
        <time>2024-03-24T17:36:36.573Z</time>
      </trkpt>
      <trkpt lat="50.65913" lon="2.76714">
        <ele>16.201147</ele>
        <time>2024-03-24T17:36:41.052Z</time>
      </trkpt>
      <trkpt lat="50.65882" lon="2.76747">
        <ele>16.398923</ele>
        <time>2024-03-24T17:36:52.660Z</time>
      </trkpt>
      <trkpt lat="50.65753" lon="2.769">
        <ele>16.71901</ele>
        <time>2024-03-24T17:37:36.565Z</time>
      </trkpt>
      <trkpt lat="50.65698" lon="2.76974">
        <ele>16.661351</ele>
        <time>2024-03-24T17:37:54.742Z</time>
      </trkpt>
      <trkpt lat="50.65615" lon="2.77092">
        <ele>16.498325</ele>
        <time>2024-03-24T17:38:23.551Z</time>
      </trkpt>
      <trkpt lat="50.65578" lon="2.77144">
        <ele>16.419021</ele>
        <time>2024-03-24T17:38:36.396Z</time>
      </trkpt>
      <trkpt lat="50.65505" lon="2.77246">
        <ele>16.359166</ele>
        <time>2024-03-24T17:39:02.175Z</time>
      </trkpt>
      <trkpt lat="50.65447" lon="2.77326">
        <ele>16.364474</ele>
        <time>2024-03-24T17:39:22.694Z</time>
      </trkpt>
      <trkpt lat="50.65222" lon="2.77637">
        <ele>16.671205</ele>
        <time>2024-03-24T17:40:44.321Z</time>
      </trkpt>
      <trkpt lat="50.65121" lon="2.77769">
        <ele>16.775647</ele>
        <time>2024-03-24T17:41:20.154Z</time>
      </trkpt>
      <trkpt lat="50.64786" lon="2.78153">
        <ele>16.8</ele>
        <time>2024-03-24T17:43:10.461Z</time>
      </trkpt>
      <trkpt lat="50.64792" lon="2.78164">
        <ele>16.8</ele>
        <time>2024-03-24T17:43:12.850Z</time>
      </trkpt>
      <trkpt lat="50.64786" lon="2.78153">
        <ele>16.8</ele>
        <time>2024-03-24T17:43:15.273Z</time>
      </trkpt>
      <trkpt lat="50.64532" lon="2.78438">
        <ele>16.718271</ele>
        <time>2024-03-24T17:44:38.217Z</time>
      </trkpt>
      <trkpt lat="50.64511" lon="2.78451">
        <ele>16.68114</ele>
        <time>2024-03-24T17:44:44.348Z</time>
      </trkpt>
      <trkpt lat="50.64504" lon="2.78444">
        <ele>16.668356</ele>
        <time>2024-03-24T17:44:46.451Z</time>
      </trkpt>
      <trkpt lat="50.64497" lon="2.78447">
        <ele>16.656168</ele>
        <time>2024-03-24T17:44:48.415Z</time>
      </trkpt>
      <trkpt lat="50.64493" lon="2.78458">
        <ele>16.643982</ele>
        <time>2024-03-24T17:44:50.353Z</time>
      </trkpt>
      <trkpt lat="50.64495" lon="2.7847">
        <ele>16.631591</ele>
        <time>2024-03-24T17:44:52.333Z</time>
      </trkpt>
      <trkpt lat="50.6449" lon="2.78481">
        <ele>16.617782</ele>
        <time>2024-03-24T17:44:54.784Z</time>
      </trkpt>
      <trkpt lat="50.64319" lon="2.78694">
        <ele>16.212022</ele>
        <time>2024-03-24T17:45:50.361Z</time>
      </trkpt>
      <trkpt lat="50.64184" lon="2.78831">
        <ele>16.292078</ele>
        <time>2024-03-24T17:46:33.563Z</time>
      </trkpt>
      <trkpt lat="50.64165" lon="2.78868">
        <ele>16.324175</ele>
        <time>2024-03-24T17:46:42.046Z</time>
      </trkpt>
      <trkpt lat="50.641" lon="2.79038">
        <ele>16.545905</ele>
        <time>2024-03-24T17:47:17.368Z</time>
      </trkpt>
      <trkpt lat="50.63999" lon="2.7926">
        <ele>16.670953</ele>
        <time>2024-03-24T17:48:04.413Z</time>
      </trkpt>
      <trkpt lat="50.63891" lon="2.79472">
        <ele>16.44404</ele>
        <time>2024-03-24T17:48:49.019Z</time>
      </trkpt>
      <trkpt lat="50.63682" lon="2.79819">
        <ele>15.697037</ele>
        <time>2024-03-24T17:50:05.929Z</time>
      </trkpt>
      <trkpt lat="50.63661" lon="2.79846">
        <ele>15.687229</ele>
        <time>2024-03-24T17:50:13.045Z</time>
      </trkpt>
      <trkpt lat="50.63624" lon="2.79897">
        <ele>15.669656</ele>
        <time>2024-03-24T17:50:26.120Z</time>
      </trkpt>
      <trkpt lat="50.63761" lon="2.80101">
        <ele>16.006544</ele>
        <time>2024-03-24T17:51:18.434Z</time>
      </trkpt>
      <trkpt lat="50.63806" lon="2.80182">
        <ele>16.217332</ele>
        <time>2024-03-24T17:51:38.016Z</time>
      </trkpt>
      <trkpt lat="50.63819" lon="2.80196">
        <ele>16.276929</ele>
        <time>2024-03-24T17:51:42.590Z</time>
      </trkpt>
      <trkpt lat="50.6386" lon="2.80222">
        <ele>16.442348</ele>
        <time>2024-03-24T17:51:55.313Z</time>
      </trkpt>
      <trkpt lat="50.63872" lon="2.80234">
        <ele>16.498238</ele>
        <time>2024-03-24T17:51:59.564Z</time>
      </trkpt>
      <trkpt lat="50.63964" lon="2.80363">
        <ele>16.85518</ele>
        <time>2024-03-24T17:52:34.404Z</time>
      </trkpt>
      <trkpt lat="50.64148" lon="2.80613">
        <ele>16.640714</ele>
        <time>2024-03-24T17:53:37.470Z</time>
      </trkpt>
      <trkpt lat="50.64208" lon="2.80649">
        <ele>16.519372</ele>
        <time>2024-03-24T17:53:53.954Z</time>
      </trkpt>
      <trkpt lat="50.64336" lon="2.80828">
        <ele>16.268557</ele>
        <time>2024-03-24T17:54:38.204Z</time>
      </trkpt>
      <trkpt lat="50.64401" lon="2.80948">
        <ele>16.362813</ele>
        <time>2024-03-24T17:55:04.959Z</time>
      </trkpt>
      <trkpt lat="50.64477" lon="2.81097">
        <ele>16.633632</ele>
        <time>2024-03-24T17:55:39.404Z</time>
      </trkpt>
      <trkpt lat="50.64511" lon="2.81162">
        <ele>16.788501</ele>
        <time>2024-03-24T17:55:55.064Z</time>
      </trkpt>
      <trkpt lat="50.64613" lon="2.81292">
        <ele>17.118653</ele>
        <time>2024-03-24T17:56:31.514Z</time>
      </trkpt>
      <trkpt lat="50.64667" lon="2.81361">
        <ele>17.025653</ele>
        <time>2024-03-24T17:56:49.832Z</time>
      </trkpt>
      <trkpt lat="50.64734" lon="2.8148">
        <ele>16.888209</ele>
        <time>2024-03-24T17:57:15.490Z</time>
      </trkpt>
      <trkpt lat="50.64755" lon="2.81554">
        <ele>16.791358</ele>
        <time>2024-03-24T17:57:28.421Z</time>
      </trkpt>
      <trkpt lat="50.64763" lon="2.81571">
        <ele>16.7651</ele>
        <time>2024-03-24T17:57:31.959Z</time>
      </trkpt>
      <trkpt lat="50.64776" lon="2.81587">
        <ele>16.735102</ele>
        <time>2024-03-24T17:57:36.014Z</time>
      </trkpt>
      <trkpt lat="50.64911" lon="2.81682">
        <ele>16.598128</ele>
        <time>2024-03-24T17:58:14.809Z</time>
      </trkpt>
      <trkpt lat="50.64931" lon="2.81709">
        <ele>16.622024</ele>
        <time>2024-03-24T17:58:22.090Z</time>
      </trkpt>
      <trkpt lat="50.65004" lon="2.81822">
        <ele>16.714664</ele>
        <time>2024-03-24T17:58:50.297Z</time>
      </trkpt>
      <trkpt lat="50.65046" lon="2.8188">
        <ele>16.763758</ele>
        <time>2024-03-24T17:59:05.663Z</time>
      </trkpt>
      <trkpt lat="50.65163" lon="2.82046">
        <ele>16.888588</ele>
        <time>2024-03-24T17:59:47.959Z</time>
      </trkpt>
      <trkpt lat="50.65276" lon="2.82213">
        <ele>16.977848</ele>
        <time>2024-03-24T18:00:29.509Z</time>
      </trkpt>
      <trkpt lat="50.65356" lon="2.82379">
        <ele>17.331998</ele>
        <time>2024-03-24T18:01:06.531Z</time>
      </trkpt>
      <trkpt lat="50.65391" lon="2.82434">
        <ele>17.459082</ele>
        <time>2024-03-24T18:01:20.567Z</time>
      </trkpt>
      <trkpt lat="50.6545" lon="2.82526">
        <ele>17.630445</ele>
        <time>2024-03-24T18:01:43.779Z</time>
      </trkpt>
      <trkpt lat="50.65489" lon="2.82596">
        <ele>17.753833</ele>
        <time>2024-03-24T18:02:00.177Z</time>
      </trkpt>
      <trkpt lat="50.65475" lon="2.82625">
        <ele>17.803396</ele>
        <time>2024-03-24T18:02:06.678Z</time>
      </trkpt>
      <trkpt lat="50.65417" lon="2.82722">
        <ele>17.80661</ele>
        <time>2024-03-24T18:02:28.906Z</time>
      </trkpt>
      <trkpt lat="50.65365" lon="2.82817">
        <ele>17.80137</ele>
        <time>2024-03-24T18:02:50.062Z</time>
      </trkpt>
      <trkpt lat="50.65318" lon="2.82909">
        <ele>17.860341</ele>
        <time>2024-03-24T18:03:10.064Z</time>
      </trkpt>
      <trkpt lat="50.65302" lon="2.82943">
        <ele>17.89022</ele>
        <time>2024-03-24T18:03:17.346Z</time>
      </trkpt>
      <trkpt lat="50.65297" lon="2.82951">
        <ele>17.897928</ele>
        <time>2024-03-24T18:03:19.212Z</time>
      </trkpt>
      <trkpt lat="50.65247" lon="2.83049">
        <ele>17.986054</ele>
        <time>2024-03-24T18:03:41.022Z</time>
      </trkpt>
      <trkpt lat="50.65151" lon="2.83204">
        <ele>17.99929</ele>
        <time>2024-03-24T18:04:18.997Z</time>
      </trkpt>
      <trkpt lat="50.65126" lon="2.83243">
        <ele>17.99929</ele>
        <time>2024-03-24T18:04:28.080Z</time>
      </trkpt>
      <trkpt lat="50.65071" lon="2.83117">
        <ele>17.99929</ele>
        <time>2024-03-24T18:04:53.377Z</time>
      </trkpt>
      <trkpt lat="50.65066" lon="2.83123">
        <ele>17.99929</ele>
        <time>2024-03-24T18:04:55.518Z</time>
      </trkpt>
    </trkseg>
  </trk>
</gpx>